createdAt,value
2023-11-06T00:00:37.621Z,0.00
2023-11-06T00:01:37.541Z,0.00
2023-11-06T00:02:37.472Z,0.00
2023-11-06T00:03:37.403Z,0.00
2023-11-06T00:04:37.288Z,0.00
2023-11-06T00:05:37.370Z,0.00
2023-11-06T00:06:37.121Z,0.00
2023-11-06T00:07:37.042Z,0.00
2023-11-06T00:08:36.955Z,0.00
2023-11-06T00:09:36.868Z,0.00
2023-11-06T00:10:36.782Z,0.00
2023-11-06T00:11:36.704Z,0.00
2023-11-06T00:12:36.618Z,0.00
2023-11-06T00:13:36.536Z,0.00
2023-11-06T00:14:36.452Z,0.00
2023-11-06T00:15:36.369Z,0.00
2023-11-06T00:16:36.294Z,0.00
2023-11-06T00:17:36.323Z,0.00
2023-11-06T00:18:36.165Z,0.00
2023-11-06T00:19:36.045Z,0.00
2023-11-06T00:20:35.958Z,0.00
2023-11-06T00:21:35.879Z,0.00
2023-11-06T00:22:35.838Z,0.00
2023-11-06T00:23:35.706Z,0.00
2023-11-06T00:24:35.620Z,0.00
2023-11-06T00:25:35.545Z,0.00
2023-11-06T00:26:35.461Z,0.00
2023-11-06T00:27:35.373Z,0.00
2023-11-06T00:28:35.292Z,0.00
2023-11-06T00:29:35.216Z,0.00
2023-11-06T00:30:35.120Z,0.00
2023-11-06T00:31:35.056Z,0.00
2023-11-06T00:32:34.979Z,0.00
2023-11-06T00:33:34.899Z,0.00
2023-11-06T00:34:34.796Z,0.00
2023-11-06T00:35:34.713Z,0.00
2023-11-06T00:36:34.628Z,0.00
2023-11-06T00:37:34.570Z,0.00
2023-11-06T00:38:34.461Z,0.00
2023-11-06T00:39:34.380Z,0.00
2023-11-06T00:40:34.309Z,0.00
2023-11-06T00:41:34.215Z,0.00
2023-11-06T00:42:34.159Z,0.00
2023-11-06T00:43:34.043Z,0.00
2023-11-06T00:44:33.964Z,0.00
2023-11-06T00:45:33.882Z,0.00
2023-11-06T00:46:33.803Z,0.00
2023-11-06T00:47:33.740Z,0.00
2023-11-06T00:48:33.652Z,0.00
2023-11-06T00:49:33.547Z,0.00
2023-11-06T00:50:33.464Z,0.00
2023-11-06T00:51:33.387Z,0.00
2023-11-06T00:52:33.305Z,0.00
2023-11-06T00:53:33.225Z,0.00
2023-11-06T00:54:33.132Z,0.00
2023-11-06T00:55:33.055Z,0.00
2023-11-06T00:56:32.969Z,0.00
2023-11-06T00:57:32.902Z,0.00
2023-11-06T00:58:32.825Z,0.00
2023-11-06T00:59:32.725Z,0.00
2023-11-06T01:00:32.644Z,0.00
2023-11-06T01:01:32.563Z,0.00
2023-11-06T01:02:32.486Z,0.00
2023-11-06T01:03:32.417Z,0.00
2023-11-06T01:04:32.311Z,0.00
2023-11-06T01:05:32.277Z,0.00
2023-11-06T01:06:32.146Z,0.00
2023-11-06T01:07:32.074Z,0.00
2023-11-06T01:08:31.976Z,0.00
2023-11-06T01:09:31.894Z,0.00
2023-11-06T01:10:31.807Z,0.00
2023-11-06T01:11:31.736Z,0.00
2023-11-06T01:12:31.644Z,0.00
2023-11-06T01:13:31.561Z,0.00
2023-11-06T01:14:31.480Z,0.00
2023-11-06T01:15:31.420Z,0.00
2023-11-06T01:16:31.316Z,0.00
2023-11-06T01:17:31.270Z,0.00
2023-11-06T01:18:31.257Z,0.00
2023-11-06T01:19:31.059Z,0.00
2023-11-06T01:20:30.982Z,0.00
2023-11-06T01:21:30.899Z,0.00
2023-11-06T01:22:39.088Z,0.00
2023-11-06T01:23:30.730Z,0.00
2023-11-06T01:24:30.653Z,0.00
2023-11-06T01:25:30.565Z,0.00
2023-11-06T01:26:30.491Z,0.00
2023-11-06T01:27:30.398Z,0.00
2023-11-06T01:28:30.339Z,0.00
2023-11-06T01:29:30.273Z,0.00
2023-11-06T01:30:30.150Z,0.00
2023-11-06T01:31:30.073Z,0.00
2023-11-06T01:32:30.097Z,0.00
2023-11-06T01:33:29.979Z,0.00
2023-11-06T01:34:29.822Z,0.00
2023-11-06T01:35:29.742Z,0.00
2023-11-06T01:36:29.658Z,0.00
2023-11-06T01:37:29.588Z,0.00
2023-11-06T01:38:29.493Z,0.00
2023-11-06T01:39:29.409Z,0.00
2023-11-06T01:40:29.325Z,0.00
2023-11-06T01:41:29.335Z,0.00
2023-11-06T01:42:29.151Z,0.00
2023-11-06T01:43:29.069Z,0.00
2023-11-06T01:44:28.988Z,0.00
2023-11-06T01:45:28.912Z,0.00
2023-11-06T01:46:28.825Z,0.00
2023-11-06T01:47:28.790Z,0.00
2023-11-06T01:48:28.875Z,0.00
2023-11-06T01:49:28.577Z,0.00
2023-11-06T01:50:28.498Z,0.00
2023-11-06T01:51:28.412Z,0.00
2023-11-06T01:52:28.325Z,0.00
2023-11-06T01:53:28.272Z,0.00
2023-11-06T01:54:28.168Z,0.00
2023-11-06T01:55:28.086Z,0.00
2023-11-06T01:56:28.018Z,0.00
2023-11-06T01:57:27.922Z,0.00
2023-11-06T01:58:27.831Z,0.00
2023-11-06T01:59:27.782Z,0.00
2023-11-06T02:00:27.664Z,0.00
2023-11-06T02:01:27.582Z,0.00
2023-11-06T02:02:27.654Z,0.00
2023-11-06T02:03:27.459Z,0.00
2023-11-06T02:04:27.362Z,0.00
2023-11-06T02:05:27.285Z,0.00
2023-11-06T02:06:27.168Z,0.00
2023-11-06T02:07:27.081Z,0.00
2023-11-06T02:08:27.022Z,0.00
2023-11-06T02:09:26.917Z,0.00
2023-11-06T02:10:26.833Z,0.00
2023-11-06T02:11:26.791Z,0.00
2023-11-06T02:12:26.666Z,0.00
2023-11-06T02:13:26.575Z,0.00
2023-11-06T02:14:26.499Z,0.00
2023-11-06T02:15:26.397Z,0.00
2023-11-06T02:16:26.312Z,0.00
2023-11-06T02:17:26.226Z,0.00
2023-11-06T02:18:26.159Z,0.00
2023-11-06T02:19:26.056Z,0.00
2023-11-06T02:20:26.020Z,0.00
2023-11-06T02:21:25.887Z,0.00
2023-11-06T02:22:25.798Z,0.00
2023-11-06T02:23:25.755Z,0.00
2023-11-06T02:24:25.632Z,0.00
2023-11-06T02:25:25.548Z,0.00
2023-11-06T02:26:25.486Z,0.00
2023-11-06T02:27:25.382Z,0.00
2023-11-06T02:28:25.298Z,0.00
2023-11-06T02:29:25.265Z,0.00
2023-11-06T02:30:25.128Z,0.00
2023-11-06T02:31:25.044Z,0.00
2023-11-06T02:32:25.044Z,0.00
2023-11-06T02:33:24.986Z,0.00
2023-11-06T02:34:24.905Z,0.00
2023-11-06T02:35:24.799Z,0.00
2023-11-06T02:36:24.625Z,0.00
2023-11-06T02:37:24.542Z,0.00
2023-11-06T02:38:24.492Z,0.00
2023-11-06T02:39:24.373Z,0.00
2023-11-06T02:40:24.308Z,0.00
2023-11-06T02:41:24.248Z,0.00
2023-11-06T02:42:24.120Z,0.00
2023-11-06T02:43:24.042Z,0.00
2023-11-06T02:44:23.971Z,0.00
2023-11-06T02:45:23.881Z,0.00
2023-11-06T02:46:23.796Z,0.00
2023-11-06T02:47:23.739Z,0.00
2023-11-06T02:48:23.677Z,0.00
2023-11-06T02:49:23.547Z,0.00
2023-11-06T02:50:23.500Z,0.00
2023-11-06T02:51:23.384Z,0.00
2023-11-06T02:52:23.298Z,0.00
2023-11-06T02:53:23.238Z,0.00
2023-11-06T02:54:23.136Z,0.00
2023-11-06T02:55:23.048Z,0.00
2023-11-06T02:56:22.982Z,0.00
2023-11-06T02:57:22.886Z,0.00
2023-11-06T02:58:22.806Z,0.00
2023-11-06T02:59:22.804Z,0.00
2023-11-06T03:00:22.648Z,0.00
2023-11-06T03:01:22.551Z,0.00
2023-11-06T03:02:22.492Z,0.00
2023-11-06T03:03:22.423Z,0.00
2023-11-06T03:04:22.304Z,0.00
2023-11-06T03:05:22.386Z,0.00
2023-11-06T03:06:22.136Z,0.00
2023-11-06T03:07:22.056Z,0.00
2023-11-06T03:08:21.984Z,0.00
2023-11-06T03:09:21.889Z,0.00
2023-11-06T03:10:21.806Z,0.00
2023-11-06T03:11:21.763Z,0.00
2023-11-06T03:12:21.637Z,0.00
2023-11-06T03:13:21.576Z,0.00
2023-11-06T03:14:21.502Z,0.00
2023-11-06T03:15:21.391Z,0.00
2023-11-06T03:16:21.307Z,0.00
2023-11-06T03:17:21.280Z,0.00
2023-11-06T03:18:21.217Z,0.00
2023-11-06T03:19:21.070Z,0.00
2023-11-06T03:20:21.009Z,0.00
2023-11-06T03:21:20.886Z,0.00
2023-11-06T03:22:20.809Z,0.00
2023-11-06T03:23:20.728Z,0.00
2023-11-06T03:24:20.644Z,0.00
2023-11-06T03:25:20.554Z,0.00
2023-11-06T03:26:20.543Z,0.00
2023-11-06T03:27:20.393Z,0.00
2023-11-06T03:28:20.311Z,0.00
2023-11-06T03:29:20.262Z,0.00
2023-11-06T03:30:20.147Z,0.00
2023-11-06T03:31:20.057Z,0.00
2023-11-06T03:32:20.036Z,0.00
2023-11-06T03:33:19.902Z,0.00
2023-11-06T03:34:19.810Z,0.00
2023-11-06T03:35:19.790Z,0.00
2023-11-06T03:36:19.642Z,0.00
2023-11-06T03:37:19.564Z,0.00
2023-11-06T03:38:19.558Z,0.00
2023-11-06T03:39:19.391Z,0.00
2023-11-06T03:40:19.312Z,0.00
2023-11-06T03:41:19.290Z,0.00
2023-11-06T03:42:19.148Z,0.00
2023-11-06T03:43:19.072Z,0.00
2023-11-06T03:44:19.034Z,0.00
2023-11-06T03:45:18.917Z,0.00
2023-11-06T03:46:18.809Z,0.00
2023-11-06T03:47:18.768Z,0.00
2023-11-06T03:48:18.678Z,0.00
2023-11-06T03:49:18.557Z,0.00
2023-11-06T03:50:18.477Z,0.00
2023-11-06T03:51:18.392Z,0.00
2023-11-06T03:52:18.319Z,0.00
2023-11-06T03:53:18.277Z,0.00
2023-11-06T03:54:18.140Z,0.00
2023-11-06T03:55:18.055Z,0.00
2023-11-06T03:56:18.021Z,0.00
2023-11-06T03:57:17.901Z,0.00
2023-11-06T03:58:17.812Z,0.00
2023-11-06T03:59:17.730Z,0.00
2023-11-06T04:00:17.713Z,0.00
2023-11-06T04:01:17.565Z,0.00
2023-11-06T04:02:17.505Z,0.00
2023-11-06T04:03:17.435Z,0.00
2023-11-06T04:04:17.303Z,0.00
2023-11-06T04:05:17.329Z,0.00
2023-11-06T04:06:17.215Z,0.00
2023-11-06T04:07:17.099Z,0.00
2023-11-06T04:08:17.065Z,0.00
2023-11-06T04:09:16.914Z,0.00
2023-11-06T04:10:16.803Z,0.00
2023-11-06T04:11:16.783Z,0.00
2023-11-06T04:12:16.641Z,0.00
2023-11-06T04:13:16.560Z,0.00
2023-11-06T04:14:16.523Z,0.00
2023-11-06T04:15:16.404Z,0.00
2023-11-06T04:16:16.315Z,0.00
2023-11-06T04:17:16.274Z,0.00
2023-11-06T04:18:16.216Z,0.00
2023-11-06T04:19:16.052Z,0.00
2023-11-06T04:20:16.031Z,0.00
2023-11-06T04:21:15.883Z,0.00
2023-11-06T04:22:15.819Z,0.00
2023-11-06T04:23:15.784Z,0.00
2023-11-06T04:24:15.636Z,0.00
2023-11-06T04:25:15.557Z,0.00
2023-11-06T04:26:15.477Z,0.00
2023-11-06T04:27:15.393Z,0.00
2023-11-06T04:28:15.306Z,0.00
2023-11-06T04:29:15.268Z,0.00
2023-11-06T04:30:15.138Z,0.00
2023-11-06T04:31:15.059Z,0.00
2023-11-06T04:32:15.020Z,0.00
2023-11-06T04:33:15.020Z,0.00
2023-11-06T04:34:14.814Z,0.00
2023-11-06T04:35:14.814Z,0.00
2023-11-06T04:36:14.632Z,0.00
2023-11-06T04:37:14.561Z,0.00
2023-11-06T04:38:14.531Z,0.00
2023-11-06T04:39:14.403Z,0.00
2023-11-06T04:40:14.318Z,0.00
2023-11-06T04:41:14.256Z,0.00
2023-11-06T04:42:14.153Z,0.00
2023-11-06T04:43:14.057Z,0.00
2023-11-06T04:44:14.034Z,0.00
2023-11-06T04:45:13.888Z,0.00
2023-11-06T04:46:13.798Z,0.00
2023-11-06T04:47:13.752Z,0.00
2023-11-06T04:48:13.723Z,0.00
2023-11-06T04:49:13.553Z,0.00
2023-11-06T04:50:13.649Z,0.00
2023-11-06T04:51:13.388Z,0.00
2023-11-06T04:52:13.298Z,0.00
2023-11-06T04:53:13.243Z,0.00
2023-11-06T04:54:13.132Z,0.00
2023-11-06T04:55:13.056Z,0.00
2023-11-06T04:56:13.020Z,0.00
2023-11-06T04:57:12.887Z,0.00
2023-11-06T04:58:12.799Z,0.00
2023-11-06T04:59:12.719Z,0.00
2023-11-06T05:00:12.632Z,0.00
2023-11-06T05:01:12.550Z,0.00
2023-11-06T05:02:12.482Z,0.00
2023-11-06T05:03:12.458Z,0.00
2023-11-06T05:04:12.320Z,0.00
2023-11-06T05:05:12.591Z,0.00
2023-11-06T05:06:12.181Z,0.00
2023-11-06T05:07:12.052Z,0.00
2023-11-06T05:08:12.012Z,0.00
2023-11-06T05:09:12.191Z,0.00
2023-11-06T05:10:11.792Z,0.00
2023-11-06T05:11:11.725Z,0.00
2023-11-06T05:12:11.629Z,0.00
2023-11-06T05:13:11.541Z,0.00
2023-11-06T05:14:11.477Z,0.00
2023-11-06T05:15:11.370Z,0.00
2023-11-06T05:16:11.471Z,0.00
2023-11-06T05:17:11.227Z,0.00
2023-11-06T05:18:11.251Z,0.00
2023-11-06T05:19:11.041Z,0.00
2023-11-06T05:20:11.422Z,0.00
2023-11-06T05:21:10.873Z,0.00
2023-11-06T05:22:15.268Z,0.00
2023-11-06T05:23:10.733Z,0.00
2023-11-06T05:24:10.621Z,0.00
2023-11-06T05:25:10.583Z,0.00
2023-11-06T05:26:10.460Z,0.00
2023-11-06T05:27:10.383Z,0.00
2023-11-06T05:28:10.289Z,0.00
2023-11-06T05:29:10.223Z,0.00
2023-11-06T05:30:10.123Z,0.00
2023-11-06T05:31:10.036Z,0.00
2023-11-06T05:32:12.363Z,0.00
2023-11-06T05:33:09.895Z,0.00
2023-11-06T05:34:09.818Z,0.00
2023-11-06T05:35:10.026Z,0.00
2023-11-06T05:36:09.618Z,0.00
2023-11-06T05:37:09.535Z,4.00
2023-11-06T05:38:09.469Z,0.00
2023-11-06T05:39:09.370Z,0.00
2023-11-06T05:40:09.284Z,4.00
2023-11-06T05:41:09.266Z,4.00
2023-11-06T05:42:09.138Z,4.00
2023-11-06T05:43:09.034Z,4.00
2023-11-06T05:44:08.967Z,8.00
2023-11-06T05:45:08.897Z,8.00
2023-11-06T05:46:08.800Z,12.00
2023-11-06T05:47:08.787Z,12.00
2023-11-06T05:48:08.640Z,12.00
2023-11-06T05:49:08.542Z,16.00
2023-11-06T05:50:08.479Z,20.00
2023-11-06T05:51:08.365Z,20.00
2023-11-06T05:52:08.286Z,24.00
2023-11-06T05:53:08.211Z,28.00
2023-11-06T05:54:08.121Z,36.00
2023-11-06T05:55:08.035Z,40.00
2023-11-06T05:56:08.020Z,44.00
2023-11-06T05:57:07.864Z,52.00
2023-11-06T05:58:07.790Z,60.00
2023-11-06T05:59:07.732Z,64.00
2023-11-06T06:00:07.617Z,76.00
2023-11-06T06:01:07.552Z,84.00
2023-11-06T06:02:07.493Z,92.00
2023-11-06T06:04:38.870Z,120.00
2023-11-06T06:05:38.886Z,128.00
2023-11-06T06:06:38.686Z,144.00
2023-11-06T06:07:38.638Z,156.00
2023-11-06T06:08:38.523Z,168.00
2023-11-06T06:09:38.445Z,180.00
2023-11-06T06:10:38.357Z,192.00
2023-11-06T06:11:38.272Z,204.00
2023-11-06T06:12:38.195Z,220.00
2023-11-06T06:13:38.121Z,232.00
2023-11-06T06:14:38.025Z,248.00
2023-11-06T06:15:37.942Z,264.00
2023-11-06T06:16:37.864Z,276.00
2023-11-06T06:17:37.857Z,292.00
2023-11-06T06:18:37.736Z,308.00
2023-11-06T06:19:37.608Z,320.00
2023-11-06T06:20:37.584Z,340.00
2023-11-06T06:21:37.443Z,352.00
2023-11-06T06:22:37.356Z,368.00
2023-11-06T06:23:37.319Z,384.00
2023-11-06T06:24:37.179Z,400.00
2023-11-06T06:25:37.104Z,412.00
2023-11-06T06:26:37.017Z,420.00
2023-11-06T06:27:36.930Z,428.00
2023-11-06T06:28:36.848Z,444.00
2023-11-06T06:29:36.777Z,452.00
2023-11-06T06:30:36.683Z,484.00
2023-11-06T06:31:36.621Z,496.00
2023-11-06T06:32:36.782Z,520.00
2023-11-06T06:33:36.507Z,536.00
2023-11-06T06:34:36.354Z,568.00
2023-11-06T06:35:36.304Z,568.00
2023-11-06T06:36:36.194Z,568.00
2023-11-06T06:37:36.101Z,584.00
2023-11-06T06:38:36.019Z,592.00
2023-11-06T06:39:35.932Z,616.00
2023-11-06T06:40:35.844Z,656.00
2023-11-06T06:41:35.812Z,644.00
2023-11-06T06:42:35.693Z,632.00
2023-11-06T06:43:35.606Z,664.00
2023-11-06T06:44:35.549Z,704.00
2023-11-06T06:45:35.434Z,728.00
2023-11-06T06:46:35.354Z,732.00
2023-11-06T06:47:35.507Z,732.00
2023-11-06T06:48:35.251Z,744.00
2023-11-06T06:49:35.105Z,760.00
2023-11-06T06:50:35.043Z,780.00
2023-11-06T06:51:34.928Z,808.00
2023-11-06T06:52:34.851Z,828.00
2023-11-06T06:53:34.782Z,848.00
2023-11-06T06:54:34.678Z,896.00
2023-11-06T06:55:34.603Z,924.00
2023-11-06T06:56:34.553Z,900.00
2023-11-06T06:57:34.431Z,872.00
2023-11-06T06:58:34.354Z,888.00
2023-11-06T06:59:34.393Z,900.00
2023-11-06T07:00:34.175Z,924.00
2023-11-06T07:01:34.092Z,1128.00
2023-11-06T07:02:34.159Z,1096.00
2023-11-06T07:03:33.975Z,1140.00
2023-11-06T07:04:33.868Z,1200.00
2023-11-06T07:05:33.930Z,1220.00
2023-11-06T07:06:33.771Z,1228.00
2023-11-06T07:07:33.596Z,1244.00
2023-11-06T07:08:33.579Z,1136.00
2023-11-06T07:09:33.477Z,1064.00
2023-11-06T07:10:33.350Z,1096.00
2023-11-06T07:11:33.304Z,1172.00
2023-11-06T07:12:33.186Z,1316.00
2023-11-06T07:13:33.101Z,1852.00
2023-11-06T07:14:33.360Z,1976.00
2023-11-06T07:15:32.932Z,1660.00
2023-11-06T07:16:32.846Z,1620.00
2023-11-06T07:17:32.822Z,1528.00
2023-11-06T07:18:32.675Z,1484.00
2023-11-06T07:19:32.689Z,1620.00
2023-11-06T07:20:32.561Z,1688.00
2023-11-06T07:21:32.436Z,1580.00
2023-11-06T07:22:32.352Z,1836.00
2023-11-06T07:23:32.333Z,1984.00
2023-11-06T07:24:32.176Z,1900.00
2023-11-06T07:25:32.106Z,1828.00
2023-11-06T07:26:32.041Z,1624.00
2023-11-06T07:27:31.935Z,1392.00
2023-11-06T07:28:31.852Z,1188.00
2023-11-06T07:29:31.814Z,1176.00
2023-11-06T07:30:31.680Z,1196.00
2023-11-06T07:31:31.594Z,1384.00
2023-11-06T07:32:31.638Z,1284.00
2023-11-06T07:33:31.532Z,1560.00
2023-11-06T07:34:31.348Z,1568.00
2023-11-06T07:35:31.330Z,1572.00
2023-11-06T07:36:31.187Z,1576.00
2023-11-06T07:37:31.097Z,1584.00
2023-11-06T07:38:31.037Z,1596.00
2023-11-06T07:39:30.934Z,1608.00
2023-11-06T07:40:30.852Z,1612.00
2023-11-06T07:41:30.835Z,1616.00
2023-11-06T07:42:30.686Z,1628.00
2023-11-06T07:43:30.615Z,1636.00
2023-11-06T07:44:32.674Z,1644.00
2023-11-06T07:45:30.434Z,1644.00
2023-11-06T07:46:30.357Z,1648.00
2023-11-06T07:47:30.334Z,1656.00
2023-11-06T07:48:30.236Z,1668.00
2023-11-06T07:49:30.101Z,1676.00
2023-11-06T07:50:30.024Z,1680.00
2023-11-06T07:51:29.950Z,1680.00
2023-11-06T07:52:29.863Z,1692.00
2023-11-06T07:53:29.798Z,1696.00
2023-11-06T07:54:29.694Z,1700.00
2023-11-06T07:55:29.621Z,1708.00
2023-11-06T07:56:29.570Z,1716.00
2023-11-06T07:57:30.882Z,1720.00
2023-11-06T07:58:29.984Z,1724.00
2023-11-06T07:59:29.574Z,1724.00
2023-11-06T08:00:39.905Z,1732.00
2023-11-06T08:01:29.111Z,1740.00
2023-11-06T08:02:29.148Z,1748.00
2023-11-06T08:03:29.009Z,1740.00
2023-11-06T08:04:28.865Z,1740.00
2023-11-06T08:05:28.818Z,1740.00
2023-11-06T08:06:28.748Z,1740.00
2023-11-06T08:07:28.648Z,1744.00
2023-11-06T08:08:28.526Z,1748.00
2023-11-06T08:09:28.454Z,1744.00
2023-11-06T08:10:28.367Z,1752.00
2023-11-06T08:11:28.312Z,1752.00
2023-11-06T08:12:28.203Z,1752.00
2023-11-06T08:13:28.119Z,1756.00
2023-11-06T08:14:28.060Z,1756.00
2023-11-06T08:15:27.953Z,1760.00
2023-11-06T08:16:27.872Z,1760.00
2023-11-06T08:17:27.880Z,1768.00
2023-11-06T08:18:27.866Z,1772.00
2023-11-06T08:19:27.627Z,1772.00
2023-11-06T08:20:27.685Z,1772.00
2023-11-06T08:21:28.091Z,1772.00
2023-11-06T08:22:27.376Z,1776.00
2023-11-06T08:23:27.313Z,1776.00
2023-11-06T08:24:27.831Z,1776.00
2023-11-06T08:25:27.133Z,1780.00
2023-11-06T08:26:27.733Z,1784.00
2023-11-06T08:27:26.960Z,1792.00
2023-11-06T08:28:26.891Z,1792.00
2023-11-06T08:29:26.842Z,1788.00
2023-11-06T08:30:26.722Z,1796.00
2023-11-06T08:31:26.689Z,1796.00
2023-11-06T08:32:26.628Z,1800.00
2023-11-06T08:33:26.514Z,1804.00
2023-11-06T08:34:26.389Z,1808.00
2023-11-06T08:35:26.478Z,1812.00
2023-11-06T08:36:26.226Z,1820.00
2023-11-06T08:37:26.144Z,1832.00
2023-11-06T08:38:26.101Z,1824.00
2023-11-06T08:39:25.973Z,1820.00
2023-11-06T08:40:25.889Z,1824.00
2023-11-06T08:41:25.848Z,1836.00
2023-11-06T08:42:25.730Z,1836.00
2023-11-06T08:43:25.656Z,1844.00
2023-11-06T08:44:25.581Z,1852.00
2023-11-06T08:45:25.488Z,1860.00
2023-11-06T08:46:25.858Z,1856.00
2023-11-06T08:47:25.328Z,1880.00
2023-11-06T08:48:25.302Z,1896.00
2023-11-06T08:49:26.379Z,1888.00
2023-11-06T08:50:25.163Z,1900.00
2023-11-06T08:51:24.987Z,1908.00
2023-11-06T08:52:24.927Z,1920.00
2023-11-06T08:53:24.858Z,1972.00
2023-11-06T08:54:24.760Z,2140.00
2023-11-06T08:55:24.662Z,2128.00
2023-11-06T08:56:24.595Z,2036.00
2023-11-06T08:57:24.500Z,2132.00
2023-11-06T08:58:24.416Z,2004.00
2023-11-06T08:59:24.361Z,2000.00
2023-11-06T09:00:24.248Z,1820.00
2023-11-06T09:01:24.184Z,2036.00
2023-11-06T09:02:24.157Z,2160.00
2023-11-06T09:03:24.105Z,2224.00
2023-11-06T09:04:23.924Z,2084.00
2023-11-06T09:05:23.847Z,2112.00
2023-11-06T09:06:23.871Z,2180.00
2023-11-06T09:07:23.679Z,2156.00
2023-11-06T09:08:23.602Z,2156.00
2023-11-06T09:09:23.509Z,2268.00
2023-11-06T09:10:23.424Z,2268.00
2023-11-06T09:11:23.364Z,2364.00
2023-11-06T09:12:23.264Z,2592.00
2023-11-06T09:13:23.180Z,2496.00
2023-11-06T09:14:23.151Z,2732.00
2023-11-06T09:15:23.020Z,2904.00
2023-11-06T09:16:22.939Z,2968.00
2023-11-06T09:17:22.901Z,3216.00
2023-11-06T09:18:22.848Z,3104.00
2023-11-06T09:19:22.701Z,2932.00
2023-11-06T09:20:22.633Z,2812.00
2023-11-06T09:21:22.523Z,3540.00
2023-11-06T09:22:22.482Z,4092.00
2023-11-06T09:23:22.450Z,4256.00
2023-11-06T09:24:22.282Z,3676.00
2023-11-06T09:25:22.191Z,3944.00
2023-11-06T09:26:22.144Z,4004.00
2023-11-06T09:27:22.039Z,4908.00
2023-11-06T09:28:21.960Z,5408.00
2023-11-06T09:29:21.894Z,5088.00
2023-11-06T09:30:21.819Z,5344.00
2023-11-06T09:31:21.714Z,4728.00
2023-11-06T09:32:21.653Z,5568.00
2023-11-06T09:33:21.601Z,5364.00
2023-11-06T09:34:21.519Z,5600.00
2023-11-06T09:35:21.412Z,6124.00
2023-11-06T09:36:21.304Z,5264.00
2023-11-06T09:37:21.224Z,4632.00
2023-11-06T09:38:21.170Z,3948.00
2023-11-06T09:39:21.064Z,4888.00
2023-11-06T09:40:20.991Z,4692.00
2023-11-06T09:41:20.937Z,4380.00
2023-11-06T09:42:20.820Z,5860.00
2023-11-06T09:43:21.456Z,5220.00
2023-11-06T09:44:20.728Z,4924.00
2023-11-06T09:45:20.572Z,4036.00
2023-11-06T09:46:20.496Z,4032.00
2023-11-06T09:47:20.415Z,4208.00
2023-11-06T09:48:20.609Z,4824.00
2023-11-06T09:49:20.280Z,4720.00
2023-11-06T09:50:20.303Z,3904.00
2023-11-06T09:51:20.116Z,3504.00
2023-11-06T09:52:20.032Z,4128.00
2023-11-06T09:53:19.954Z,4084.00
2023-11-06T09:54:19.846Z,4752.00
2023-11-06T09:55:19.772Z,5792.00
2023-11-06T09:56:19.728Z,5892.00
2023-11-06T09:57:19.602Z,5736.00
2023-11-06T09:58:19.536Z,6364.00
2023-11-06T09:59:19.499Z,5696.00
2023-11-06T10:00:19.362Z,6512.00
2023-11-06T10:01:19.283Z,7704.00
2023-11-06T10:02:19.215Z,7824.00
2023-11-06T10:03:19.208Z,6956.00
2023-11-06T10:04:19.078Z,6696.00
2023-11-06T10:05:19.030Z,7276.00
2023-11-06T10:06:18.882Z,8028.00
2023-11-06T10:07:18.795Z,7572.00
2023-11-06T10:08:18.718Z,7044.00
2023-11-06T10:09:18.633Z,7556.00
2023-11-06T10:10:18.558Z,7292.00
2023-11-06T10:11:19.098Z,7232.00
2023-11-06T10:12:18.500Z,7364.00
2023-11-06T10:13:18.307Z,7004.00
2023-11-06T10:14:18.258Z,6984.00
2023-11-06T10:15:18.150Z,7160.00
2023-11-06T10:16:18.078Z,6296.00
2023-11-06T10:17:18.015Z,7460.00
2023-11-06T10:18:18.111Z,7240.00
2023-11-06T10:19:17.884Z,7132.00
2023-11-06T10:20:18.146Z,6740.00
2023-11-06T10:21:17.670Z,5372.00
2023-11-06T10:22:17.590Z,5016.00
2023-11-06T10:23:17.528Z,6216.00
2023-11-06T10:24:17.438Z,6508.00
2023-11-06T10:25:17.352Z,6664.00
2023-11-06T10:26:17.367Z,8296.00
2023-11-06T10:27:17.187Z,9236.00
2023-11-06T10:28:17.119Z,24416.00
2023-11-06T10:29:17.061Z,20032.00
2023-11-06T10:30:16.963Z,37280.00
2023-11-06T10:31:17.466Z,35520.00
2023-11-06T10:32:18.005Z,12748.00
2023-11-06T10:33:16.947Z,8832.00
2023-11-06T10:34:16.723Z,7864.00
2023-11-06T10:35:16.599Z,7096.00
2023-11-06T10:36:16.504Z,8820.00
2023-11-06T10:37:16.401Z,10308.00
2023-11-06T10:38:16.372Z,12412.00
2023-11-06T10:39:16.227Z,8408.00
2023-11-06T10:40:16.683Z,9240.00
2023-11-06T10:41:16.110Z,7676.00
2023-11-06T10:42:16.010Z,8196.00
2023-11-06T10:43:15.920Z,7336.00
2023-11-06T10:44:15.859Z,5276.00
2023-11-06T10:45:15.877Z,5588.00
2023-11-06T10:46:15.679Z,3944.00
2023-11-06T10:47:15.654Z,4540.00
2023-11-06T10:48:15.693Z,4328.00
2023-11-06T10:49:15.576Z,7260.00
2023-11-06T10:50:15.369Z,7612.00
2023-11-06T10:51:15.962Z,6084.00
2023-11-06T10:52:15.215Z,9692.00
2023-11-06T10:53:15.148Z,7976.00
2023-11-06T10:54:15.036Z,4664.00
2023-11-06T10:55:22.936Z,6348.00
2023-11-06T10:56:14.903Z,5872.00
2023-11-06T10:57:14.798Z,7900.00
2023-11-06T10:58:14.715Z,15544.00
2023-11-06T10:59:14.649Z,6528.00
2023-11-06T11:00:14.561Z,9168.00
2023-11-06T11:01:14.479Z,5968.00
2023-11-06T11:02:14.407Z,4840.00
2023-11-06T11:03:14.388Z,4640.00
2023-11-06T11:04:14.329Z,4996.00
2023-11-06T11:05:14.341Z,5584.00
2023-11-06T11:06:14.113Z,7556.00
2023-11-06T11:07:13.995Z,5992.00
2023-11-06T11:08:13.981Z,6364.00
2023-11-06T11:09:13.836Z,8972.00
2023-11-06T11:10:13.759Z,11896.00
2023-11-06T11:11:13.732Z,10960.00
2023-11-06T11:12:13.604Z,14088.00
2023-11-06T11:13:13.514Z,8316.00
2023-11-06T11:14:13.495Z,6900.00
2023-11-06T11:15:13.374Z,12000.00
2023-11-06T11:16:13.276Z,31040.00
2023-11-06T11:17:13.238Z,48448.00
2023-11-06T11:18:13.253Z,41792.00
2023-11-06T11:19:13.117Z,11992.00
2023-11-06T11:20:12.980Z,28128.00
2023-11-06T11:21:12.886Z,12704.00
2023-11-06T11:23:55.425Z,48160.00
2023-11-06T11:24:55.299Z,27520.00
2023-11-06T11:26:59.109Z,55936.00
2023-11-06T11:27:59.007Z,49088.00
2023-11-06T11:30:02.840Z,41312.00
2023-11-06T11:31:02.756Z,9536.00
2023-11-06T11:33:06.730Z,34944.00
2023-11-06T11:34:07.932Z,26400.00
2023-11-06T11:36:10.357Z,10016.00
2023-11-06T11:37:10.268Z,27520.00
2023-11-06T11:39:16.444Z,11168.00
2023-11-06T11:40:14.030Z,16940.00
2023-11-06T11:42:17.918Z,9432.00
2023-11-06T11:43:17.789Z,10212.00
2023-11-06T11:45:21.737Z,67584.00
2023-11-06T11:46:21.553Z,110880.00
2023-11-06T11:48:25.497Z,24256.00
2023-11-06T11:49:25.312Z,95552.00
2023-11-06T11:51:29.169Z,57088.00
2023-11-06T11:52:29.060Z,92800.00
2023-11-06T11:54:21.840Z,100768.00
2023-11-06T11:55:21.757Z,54496.00
2023-11-06T11:57:25.631Z,17120.00
2023-11-06T11:58:25.524Z,57760.00
2023-11-06T12:00:29.470Z,57888.00
2023-11-06T12:01:29.298Z,98720.00
2023-11-06T12:02:30.430Z,25376.00
2023-11-06T12:03:29.218Z,90368.00
2023-11-06T12:04:29.114Z,110944.00
2023-11-06T12:05:29.060Z,27360.00
2023-11-06T12:06:28.980Z,12492.00
2023-11-06T12:07:28.896Z,10692.00
2023-11-06T12:08:30.245Z,9204.00
2023-11-06T12:09:28.744Z,5092.00
2023-11-06T12:10:28.664Z,3728.00
2023-11-06T12:11:28.669Z,3612.00
2023-11-06T12:12:28.537Z,3672.00
2023-11-06T12:13:28.456Z,3956.00
2023-11-06T12:14:28.563Z,4468.00
2023-11-06T12:15:28.315Z,4072.00
2023-11-06T12:16:28.242Z,3700.00
2023-11-06T12:17:28.481Z,5952.00
2023-11-06T12:18:28.201Z,9800.00
2023-11-06T12:19:28.172Z,106912.00
2023-11-06T12:20:28.416Z,19808.00
2023-11-06T12:21:27.897Z,12720.00
2023-11-06T12:22:27.821Z,11252.00
2023-11-06T12:23:27.772Z,10468.00
2023-11-06T12:24:27.656Z,11676.00
2023-11-06T12:25:27.587Z,9884.00
2023-11-06T12:26:28.681Z,7696.00
2023-11-06T12:27:27.436Z,6732.00
2023-11-06T12:28:27.365Z,6748.00
2023-11-06T12:29:27.297Z,6812.00
2023-11-06T12:30:27.219Z,6676.00
2023-11-06T12:31:27.142Z,5764.00
2023-11-06T12:32:29.535Z,5284.00
2023-11-06T12:33:27.096Z,4692.00
2023-11-06T12:34:26.941Z,5448.00
2023-11-06T12:35:26.896Z,11508.00
2023-11-06T12:36:26.786Z,9676.00
2023-11-06T12:37:26.686Z,11572.00
2023-11-06T12:38:27.600Z,119776.00
2023-11-06T12:39:26.540Z,64320.00
2023-11-06T12:40:26.473Z,33088.00
2023-11-06T12:41:26.393Z,24416.00
2023-11-06T12:42:26.311Z,52192.00
2023-11-06T12:43:26.232Z,8756.00
2023-11-06T12:44:27.722Z,6520.00
2023-11-06T12:45:26.124Z,86304.00
2023-11-06T12:46:26.015Z,117152.00
2023-11-06T12:47:26.011Z,116512.00
2023-11-06T12:48:25.902Z,118656.00
2023-11-06T12:49:25.842Z,31552.00
2023-11-06T12:50:25.746Z,99680.00
2023-11-06T12:51:25.651Z,57408.00
2023-11-06T12:52:25.580Z,16304.00